sensor_id;sensor_type;location;lat;lon;timestamp;pressure;altitude;pressure_sealevel;temperature;humidity
46598;BME280;32318;48.858;8.252;2023-04-08T00:01:43;100648.38;;;8.79;85.78
46598;BME280;32318;48.858;8.252;2023-04-08T00:09:43;100660.88;;;8.78;85.42
46598;BME280;32318;48.858;8.252;2023-04-08T00:17:43;100653.97;;;8.76;85.47
46598;BME280;32318;48.858;8.252;2023-04-08T00:25:44;100659.44;;;8.74;nan
46598;BME280;32318;48.858;8.252;2023-04-08T00:33:44;100653.97;;;8.76;84.63
46598;BME280;32318;48.858;8.252;2023-04-08T01:30:46;100673.19;;;8.79;81.63
46598;BME280;32318;48.858;8.252;2023-04-08T01:38:47;100670.25;;;8.63;84.57
46598;BME280;32318;48.858;8.252;2023-04-08T01:46:48;100661.97;;;8.66;84.26
46598;BME280;32318;48.858;8.252;2023-04-08T01:54:49;100671.09;;;8.63;84.41
46598;BME280;32318;48.858;8.252;2023-04-08T02:02:50;100660.84;;;8.69;84.45
46598;BME280;32318;48.858;8.252;2023-04-08T02:10:50;100649.94;;;8.62;84.22
46598;BME280;32318;48.858;8.252;2023-04-08T02:18:57;100661.56;;;8.61;84.17
46598;BME280;32318;48.858;8.252;2023-04-08T02:26:59;100670.53;;;8.60;84.38
46598;BME280;32318;48.858;8.252;2023-04-08T02:35:01;100677.41;;;8.62;84.23
46598;BME280;32318;48.858;8.252;2023-04-08T02:43:03;100674.31;;;8.67;84.06
46598;BME280;32318;48.858;8.252;2023-04-08T02:51:03;100662.84;;;8.67;84.14
46598;BME280;32318;48.858;8.252;2023-04-08T02:59:03;100670.13;;;8.65;84.25
46598;BME280;32318;48.858;8.252;2023-04-08T03:07:03;100670.66;;;8.58;84.46
46598;BME280;32318;48.858;8.252;2023-04-08T03:15:04;100668.69;;;8.60;83.84
46598;BME280;32318;48.858;8.252;2023-04-08T03:23:05;100665.34;;;8.58;83.93
46598;BME280;32318;48.858;8.252;2023-04-08T03:31:05;100675.97;;;8.58;84.20
46598;BME280;32318;48.858;8.252;2023-04-08T03:39:05;100675.56;;;8.53;83.87
46598;BME280;32318;48.858;8.252;2023-04-08T03:47:06;100673.88;;;8.52;83.83
46598;BME280;32318;48.858;8.252;2023-04-08T03:55:06;100679.50;;;8.49;83.64
46598;BME280;32318;48.858;8.252;2023-04-08T04:03:07;100682.41;;;8.46;83.55
46598;BME280;32318;48.858;8.252;2023-04-08T04:11:09;100677.25;;;8.44;83.36
46598;BME280;32318;48.858;8.252;2023-04-08T04:19:09;100680.00;;;8.43;83.46
46598;BME280;32318;48.858;8.252;2023-04-08T04:27:10;100675.66;;;8.42;83.02
46598;BME280;32318;48.858;8.252;2023-04-08T04:35:11;100682.13;;;8.39;83.17
46598;BME280;32318;48.858;8.252;2023-04-08T04:43:12;100688.56;;;8.37;83.12
46598;BME280;32318;48.858;8.252;2023-04-08T04:51:12;100696.69;;;8.35;82.90
46598;BME280;32318;48.858;8.252;2023-04-08T04:59:12;100691.94;;;8.39;82.76
46598;BME280;32318;48.858;8.252;2023-04-08T05:07:12;100711.13;;;8.42;83.32
46598;BME280;32318;48.858;8.252;2023-04-08T05:15:13;100712.25;;;8.40;83.23
46598;BME280;32318;48.858;8.252;2023-04-08T05:23:13;100718.13;;;8.43;83.38
46598;BME280;32318;48.858;8.252;2023-04-08T05:31:17;100718.56;;;8.48;83.40
46598;BME280;32318;48.858;8.252;2023-04-08T05:39:18;100724.03;;;8.47;83.61
46598;BME280;32318;48.858;8.252;2023-04-08T05:47:19;100742.38;;;8.50;83.34
46598;BME280;32318;48.858;8.252;2023-04-08T05:55:19;100733.97;;;8.55;83.10
46598;BME280;32318;48.858;8.252;2023-04-08T06:03:19;100751.91;;;8.62;83.13
46598;BME280;32318;48.858;8.252;2023-04-08T06:11:20;100754.72;;;8.71;83.17
46598;BME280;32318;48.858;8.252;2023-04-08T06:19:20;100746.47;;;8.74;83.19
46598;BME280;32318;48.858;8.252;2023-04-08T06:27:20;100772.13;;;8.85;83.08
46598;BME280;32318;48.858;8.252;2023-04-08T06:35:21;100769.72;;;9.01;82.63
46598;BME280;32318;48.858;8.252;2023-04-08T06:43:21;100769.72;;;9.11;82.18
46598;BME280;32318;48.858;8.252;2023-04-08T06:51:21;100776.84;;;9.20;81.77
46598;BME280;32318;48.858;8.252;2023-04-08T06:59:21;100784.97;;;9.29;81.72
46598;BME280;32318;48.858;8.252;2023-04-08T07:07:22;100793.41;;;9.34;81.04
46598;BME280;32318;48.858;8.252;2023-04-08T07:15:23;100792.78;;;9.50;81.50
46598;BME280;32318;48.858;8.252;2023-04-08T07:23:23;100799.50;;;9.73;79.91
46598;BME280;32318;48.858;8.252;2023-04-08T07:31:23;100796.09;;;9.81;79.01
46598;BME280;32318;48.858;8.252;2023-04-08T07:39:24;100798.63;;;9.83;79.92
46598;BME280;32318;48.858;8.252;2023-04-08T07:47:24;100812.34;;;9.88;78.52
46598;BME280;32318;48.858;8.252;2023-04-08T07:55:24;100818.28;;;9.82;77.25
46598;BME280;32318;48.858;8.252;2023-04-08T08:03:25;100822.63;;;9.83;76.95
46598;BME280;32318;48.858;8.252;2023-04-08T08:11:25;100827.22;;;9.91;76.47
46598;BME280;32318;48.858;8.252;2023-04-08T08:19:27;100828.72;;;10.03;75.90
46598;BME280;32318;48.858;8.252;2023-04-08T08:27:27;100830.09;;;10.17;74.50
46598;BME280;32318;48.858;8.252;2023-04-08T08:35:27;100830.97;;;10.45;73.13
46598;BME280;32318;48.858;8.252;2023-04-08T08:43:27;100841.81;;;10.62;73.08
46598;BME280;32318;48.858;8.252;2023-04-08T08:51:28;100841.47;;;10.75;72.36
46598;BME280;32318;48.858;8.252;2023-04-08T08:59:29;100838.66;;;11.12;71.66
46598;BME280;32318;48.858;8.252;2023-04-08T09:07:31;100855.25;;;11.34;70.63
46598;BME280;32318;48.858;8.252;2023-04-08T09:15:34;100855.31;;;11.42;66.21
46598;BME280;32318;48.858;8.252;2023-04-08T09:31:39;100854.13;;;11.63;66.61
46598;BME280;32318;48.858;8.252;2023-04-08T09:39:42;100843.06;;;11.58;65.86
46598;BME280;32318;48.858;8.252;2023-04-08T09:47:56;100836.53;;;11.79;64.93
46598;BME280;32318;48.858;8.252;2023-04-08T09:55:57;100847.09;;;11.62;64.07
46598;BME280;32318;48.858;8.252;2023-04-08T10:04:00;100853.19;;;11.72;61.16
46598;BME280;32318;48.858;8.252;2023-04-08T10:12:04;100850.31;;;11.92;62.75
46598;BME280;32318;48.858;8.252;2023-04-08T10:28:37;100847.25;;;12.39;60.10
46598;BME280;32318;48.858;8.252;2023-04-08T10:36:37;100844.44;;;12.58;57.73
46598;BME280;32318;48.858;8.252;2023-04-08T10:44:43;100838.09;;;12.59;57.20
46598;BME280;32318;48.858;8.252;2023-04-08T10:52:51;100838.91;;;12.59;58.18
46598;BME280;32318;48.858;8.252;2023-04-08T11:00:51;100829.28;;;12.83;57.00
46598;BME280;32318;48.858;8.252;2023-04-08T11:08:52;100827.13;;;12.95;55.69
46598;BME280;32318;48.858;8.252;2023-04-08T11:16:52;100832.00;;;13.16;52.82
46598;BME280;32318;48.858;8.252;2023-04-08T11:24:53;100822.78;;;13.10;54.03
46598;BME280;32318;48.858;8.252;2023-04-08T11:32:55;100821.94;;;13.01;52.46
46598;BME280;32318;48.858;8.252;2023-04-08T11:40:57;100822.59;;;12.87;49.59
46598;BME280;32318;48.858;8.252;2023-04-08T11:49:02;100810.69;;;12.90;49.00
46598;BME280;32318;48.858;8.252;2023-04-08T11:57:03;100810.13;;;12.61;48.48
46598;BME280;32318;48.858;8.252;2023-04-08T12:05:03;100819.31;;;12.50;50.29
46598;BME280;32318;48.858;8.252;2023-04-08T12:13:04;100825.53;;;12.59;51.68
46598;BME280;32318;48.858;8.252;2023-04-08T12:21:04;100818.19;;;12.61;51.68
46598;BME280;32318;48.858;8.252;2023-04-08T12:29:04;100823.34;;;12.54;52.53
46598;BME280;32318;48.858;8.252;2023-04-08T12:37:05;100823.84;;;12.58;52.86
46598;BME280;32318;48.858;8.252;2023-04-08T12:45:06;100826.25;;;12.86;50.94
46598;BME280;32318;48.858;8.252;2023-04-08T12:53:07;100826.63;;;12.91;49.23
46598;BME280;32318;48.858;8.252;2023-04-08T13:01:07;100815.91;;;12.91;48.85
46598;BME280;32318;48.858;8.252;2023-04-08T13:09:08;100819.22;;;12.85;49.55
46598;BME280;32318;48.858;8.252;2023-04-08T13:17:08;100819.38;;;12.75;49.40
46598;BME280;32318;48.858;8.252;2023-04-08T13:25:08;100819.38;;;12.67;49.32
46598;BME280;32318;48.858;8.252;2023-04-08T13:33:08;100823.56;;;12.69;49.59
46598;BME280;32318;48.858;8.252;2023-04-08T13:41:09;100826.75;;;12.73;49.15
46598;BME280;32318;48.858;8.252;2023-04-08T13:49:09;100827.44;;;12.83;48.57
46598;BME280;32318;48.858;8.252;2023-04-08T13:57:10;100827.44;;;12.75;48.11
46598;BME280;32318;48.858;8.252;2023-04-08T14:05:10;100832.59;;;12.68;48.66
46598;BME280;32318;48.858;8.252;2023-04-08T14:13:10;100824.41;;;12.70;46.86
46598;BME280;32318;48.858;8.252;2023-04-08T14:21:11;100817.16;;;12.54;47.42
46598;BME280;32318;48.858;8.252;2023-04-08T14:29:13;100808.25;;;12.45;47.78
46598;BME280;32318;48.858;8.252;2023-04-08T14:37:13;100811.13;;;12.52;46.68
46598;BME280;32318;48.858;8.252;2023-04-08T14:45:14;100823.94;;;12.32;48.87
46598;BME280;32318;48.858;8.252;2023-04-08T14:53:15;100820.22;;;12.24;49.85
46598;BME280;32318;48.858;8.252;2023-04-08T15:01:15;100825.25;;;12.28;49.43
46598;BME280;32318;48.858;8.252;2023-04-08T15:09:16;100822.13;;;12.40;49.41
46598;BME280;32318;48.858;8.252;2023-04-08T15:17:16;100814.75;;;12.43;50.39
46598;BME280;32318;48.858;8.252;2023-04-08T15:25:16;100816.13;;;12.47;52.43
46598;BME280;32318;48.858;8.252;2023-04-08T15:33:17;100830.56;;;12.54;52.13
46598;BME280;32318;48.858;8.252;2023-04-08T15:41:18;100830.50;;;12.37;52.91
46598;BME280;32318;48.858;8.252;2023-04-08T15:49:20;100833.47;;;12.34;54.12
46598;BME280;32318;48.858;8.252;2023-04-08T15:57:20;100826.13;;;12.36;53.81
46598;BME280;32318;48.858;8.252;2023-04-08T16:05:25;100830.78;;;12.26;54.12
46598;BME280;32318;48.858;8.252;2023-04-08T16:13:28;100836.13;;;12.26;54.46
46598;BME280;32318;48.858;8.252;2023-04-08T16:21:29;100835.00;;;12.02;56.09
46598;BME280;32318;48.858;8.252;2023-04-08T16:29:29;100848.00;;;11.97;56.57
46598;BME280;32318;48.858;8.252;2023-04-08T16:37:31;100854.09;;;11.81;57.55
46598;BME280;32318;48.858;8.252;2023-04-08T16:45:32;100858.91;;;11.77;57.95
46598;BME280;32318;48.858;8.252;2023-04-08T16:53:32;100862.31;;;11.61;59.18
46598;BME280;32318;48.858;8.252;2023-04-08T17:01:33;100858.16;;;11.67;59.58
46598;BME280;32318;48.858;8.252;2023-04-08T17:09:33;100871.91;;;11.72;59.22
46598;BME280;32318;48.858;8.252;2023-04-08T17:17:34;100873.06;;;11.70;59.23
46598;BME280;32318;48.858;8.252;2023-04-08T17:25:34;100876.50;;;11.62;59.93
46598;BME280;32318;48.858;8.252;2023-04-08T17:33:34;100887.75;;;11.48;60.67
46598;BME280;32318;48.858;8.252;2023-04-08T17:41:35;100896.56;;;11.40;61.71
46598;BME280;32318;48.858;8.252;2023-04-08T17:49:36;100907.03;;;11.33;61.91
46598;BME280;32318;48.858;8.252;2023-04-08T17:57:36;100906.34;;;11.31;61.87
46598;BME280;32318;48.858;8.252;2023-04-08T18:05:38;100908.84;;;11.33;61.44
46598;BME280;32318;48.858;8.252;2023-04-08T18:13:41;100910.59;;;11.24;61.32
46598;BME280;32318;48.858;8.252;2023-04-08T18:21:51;100913.75;;;11.19;61.60
46598;BME280;32318;48.858;8.252;2023-04-08T18:29:51;100931.22;;;11.13;62.30
46598;BME280;32318;48.858;8.252;2023-04-08T18:37:52;100930.59;;;11.02;62.80
46598;BME280;32318;48.858;8.252;2023-04-08T18:45:52;100954.63;;;11.02;62.81
46598;BME280;32318;48.858;8.252;2023-04-08T18:53:53;100953.50;;;11.04;62.30
46598;BME280;32318;48.858;8.252;2023-04-08T19:01:53;100963.38;;;10.94;62.65
46598;BME280;32318;48.858;8.252;2023-04-08T19:09:55;100968.09;;;10.82;62.77
46598;BME280;32318;48.858;8.252;2023-04-08T19:17:56;100970.50;;;10.75;63.11
46598;BME280;32318;48.858;8.252;2023-04-08T19:25:57;100978.50;;;10.75;63.18
46598;BME280;32318;48.858;8.252;2023-04-08T19:33:58;100982.47;;;10.71;63.64
46598;BME280;32318;48.858;8.252;2023-04-08T19:41:58;100980.63;;;10.72;63.70
46598;BME280;32318;48.858;8.252;2023-04-08T19:49:58;100986.84;;;10.72;62.96
46598;BME280;32318;48.858;8.252;2023-04-08T19:57:59;100982.75;;;10.68;62.44
46598;BME280;32318;48.858;8.252;2023-04-08T20:05:59;100980.41;;;10.65;61.81
46598;BME280;32318;48.858;8.252;2023-04-08T20:13:59;100989.78;;;10.69;60.93
46598;BME280;32318;48.858;8.252;2023-04-08T20:22:00;100991.53;;;10.50;61.95
46598;BME280;32318;48.858;8.252;2023-04-08T20:30:00;100991.84;;;10.47;61.98
46598;BME280;32318;48.858;8.252;2023-04-08T20:38:01;100992.13;;;10.44;62.11
46598;BME280;32318;48.858;8.252;2023-04-08T20:46:02;100995.06;;;10.31;62.36
46598;BME280;32318;48.858;8.252;2023-04-08T20:54:03;100995.09;;;10.22;62.57
46598;BME280;32318;48.858;8.252;2023-04-08T21:02:03;100992.59;;;10.10;63.05
46598;BME280;32318;48.858;8.252;2023-04-08T21:10:05;100982.50;;;10.04;64.06
46598;BME280;32318;48.858;8.252;2023-04-08T21:18:05;100999.03;;;9.98;64.37
46598;BME280;32318;48.858;8.252;2023-04-08T21:26:12;100986.84;;;9.95;64.85
46598;BME280;32318;48.858;8.252;2023-04-08T21:34:12;100983.75;;;9.90;65.81
46598;BME280;32318;48.858;8.252;2023-04-08T21:42:12;100988.94;;;9.92;65.36
46598;BME280;32318;48.858;8.252;2023-04-08T21:50:13;100984.19;;;9.85;65.85
46598;BME280;32318;48.858;8.252;2023-04-08T21:58:13;100989.38;;;9.87;65.54
46598;BME280;32318;48.858;8.252;2023-04-08T22:06:14;100993.88;;;9.86;65.23
46598;BME280;32318;48.858;8.252;2023-04-08T22:14:14;100989.09;;;9.80;64.78
46598;BME280;32318;48.858;8.252;2023-04-08T22:22:16;100991.22;;;9.86;64.29
46598;BME280;32318;48.858;8.252;2023-04-08T22:30:16;100981.38;;;9.77;64.95
46598;BME280;32318;48.858;8.252;2023-04-08T22:38:17;100981.66;;;9.74;64.93
46598;BME280;32318;48.858;8.252;2023-04-08T22:46:17;100986.69;;;9.67;65.20
46598;BME280;32318;48.858;8.252;2023-04-08T22:54:18;100983.31;;;9.55;65.66
46598;BME280;32318;48.858;8.252;2023-04-08T23:02:19;100980.50;;;9.47;66.37
46598;BME280;32318;48.858;8.252;2023-04-08T23:10:19;100975.75;;;9.41;66.34
46598;BME280;32318;48.858;8.252;2023-04-08T23:18:20;100982.91;;;9.50;66.40
46598;BME280;32318;48.858;8.252;2023-04-08T23:26:20;100970.25;;;9.42;66.26
46598;BME280;32318;48.858;8.252;2023-04-08T23:34:21;100978.00;;;9.36;66.28
46598;BME280;32318;48.858;8.252;2023-04-08T23:42:21;100970.41;;;9.41;65.06
46598;BME280;32318;48.858;8.252;2023-04-08T23:50:26;100972.38;;;9.39;65.14
46598;BME280;32318;48.858;8.252;2023-04-08T23:58:26;100970.97;;;9.45;64.37
